sensor_id;sensor_type;location;lat;lon;timestamp;pressure;altitude;pressure_sealevel;temperature;humidity
24788;BME280;12883;52.662;5.196;2022-10-13T00:01:17;101748.34;;;12.42;100.00
24788;BME280;12883;52.662;5.196;2022-10-13T00:03:43;101809.34;;;12.79;100.00
24788;BME280;12883;52.662;5.196;2022-10-13T00:06:12;101767.88;;;12.49;100.00
24788;BME280;12883;52.662;5.196;2022-10-13T00:08:38;101811.44;;;12.84;100.00
24788;BME280;12883;52.662;5.196;2022-10-13T00:11:19;101821.47;;;12.82;100.00
24788;BME280;12883;52.662;5.196;2022-10-13T00:13:45;101817.03;;;12.89;100.00
24788;BME280;12883;52.662;5.196;2022-10-13T00:16:12;101820.47;;;12.83;100.00
24788;BME280;12883;52.662;5.196;2022-10-13T00:18:39;101801.75;;;12.76;100.00
24788;BME280;12883;52.662;5.196;2022-10-13T00:21:10;101802.66;;;12.83;100.00
24788;BME280;12883;52.662;5.196;2022-10-13T00:23:36;101810.63;;;12.83;100.00
24788;BME280;12883;52.662;5.196;2022-10-13T00:26:03;101781.19;;;12.70;100.00
24788;BME280;12883;52.662;5.196;2022-10-13T00:28:29;101806.56;;;12.87;100.00
24788;BME280;12883;52.662;5.196;2022-10-13T00:30:55;101813.47;;;12.82;100.00
24788;BME280;12883;52.662;5.196;2022-10-13T00:33:21;101814.09;;;12.84;100.00
24788;BME280;12883;52.662;5.196;2022-10-13T00:35:47;101809.88;;;12.89;100.00
24788;BME280;12883;52.662;5.196;2022-10-13T00:38:14;101809.00;;;12.82;100.00
24788;BME280;12883;52.662;5.196;2022-10-13T00:40:43;101807.13;;;12.83;100.00
24788;BME280;12883;52.662;5.196;2022-10-13T00:43:15;101806.78;;;12.86;100.00
24788;BME280;12883;52.662;5.196;2022-10-13T00:45:41;101817.28;;;12.73;100.00
24788;BME280;12883;52.662;5.196;2022-10-13T00:48:07;101805.88;;;12.79;100.00
24788;BME280;12883;52.662;5.196;2022-10-13T00:50:38;101807.53;;;12.80;100.00
24788;BME280;12883;52.662;5.196;2022-10-13T00:53:05;101810.38;;;12.78;100.00
24788;BME280;12883;52.662;5.196;2022-10-13T00:55:33;101809.81;;;12.83;100.00
24788;BME280;12883;52.662;5.196;2022-10-13T00:58:03;101816.91;;;12.76;100.00
24788;BME280;12883;52.662;5.196;2022-10-13T01:00:30;101813.66;;;12.80;100.00
24788;BME280;12883;52.662;5.196;2022-10-13T01:02:56;101806.44;;;12.74;100.00
24788;BME280;12883;52.662;5.196;2022-10-13T01:05:22;101797.25;;;12.77;100.00
24788;BME280;12883;52.662;5.196;2022-10-13T01:07:48;101799.41;;;12.88;100.00
24788;BME280;12883;52.662;5.196;2022-10-13T01:13:22;101797.63;;;12.74;100.00
24788;BME280;12883;52.662;5.196;2022-10-13T01:20:56;101810.56;;;12.77;100.00
24788;BME280;12883;52.662;5.196;2022-10-13T01:26:40;101808.72;;;12.77;100.00
24788;BME280;12883;52.662;5.196;2022-10-13T01:29:21;101799.28;;;12.75;100.00
24788;BME280;12883;52.662;5.196;2022-10-13T01:32:10;101791.16;;;12.83;100.00
24788;BME280;12883;52.662;5.196;2022-10-13T01:34:52;101720.63;;;12.58;100.00
24788;BME280;12883;52.662;5.196;2022-10-13T01:37:31;101772.50;;;12.83;100.00
24788;BME280;12883;52.662;5.196;2022-10-13T01:45:17;101760.84;;;12.84;100.00
24788;BME280;12883;52.662;5.196;2022-10-13T01:47:46;101712.44;;;12.59;100.00
24788;BME280;12883;52.662;5.196;2022-10-13T01:50:14;101746.63;;;12.77;100.00
24788;BME280;12883;52.662;5.196;2022-10-13T01:52:41;101759.28;;;12.89;100.00
24788;BME280;12883;52.662;5.196;2022-10-13T01:55:09;101746.13;;;12.88;100.00
24788;BME280;12883;52.662;5.196;2022-10-13T01:57:38;101755.94;;;12.87;100.00
24788;BME280;12883;52.662;5.196;2022-10-13T02:00:25;101742.44;;;12.89;100.00
24788;BME280;12883;52.662;5.196;2022-10-13T02:03:12;101748.69;;;12.96;100.00
24788;BME280;12883;52.662;5.196;2022-10-13T02:05:55;101747.97;;;12.87;100.00
24788;BME280;12883;52.662;5.196;2022-10-13T02:08:49;101748.22;;;12.92;100.00
24788;BME280;12883;52.662;5.196;2022-10-13T02:11:18;101748.94;;;13.01;100.00
24788;BME280;12883;52.662;5.196;2022-10-13T02:14:11;101741.31;;;12.98;100.00
24788;BME280;12883;52.662;5.196;2022-10-13T02:16:41;101738.03;;;12.96;100.00
24788;BME280;12883;52.662;5.196;2022-10-13T02:19:10;101732.72;;;12.96;100.00
24788;BME280;12883;52.662;5.196;2022-10-13T02:21:37;101721.66;;;12.99;100.00
24788;BME280;12883;52.662;5.196;2022-10-13T02:24:04;101715.69;;;12.97;100.00
24788;BME280;12883;52.662;5.196;2022-10-13T02:26:31;101679.78;;;12.72;100.00
24788;BME280;12883;52.662;5.196;2022-10-13T02:28:57;101732.75;;;13.02;100.00
24788;BME280;12883;52.662;5.196;2022-10-13T02:31:23;101722.09;;;13.02;100.00
24788;BME280;12883;52.662;5.196;2022-10-13T02:33:48;101707.91;;;12.95;100.00
24788;BME280;12883;52.662;5.196;2022-10-13T02:36:13;101694.91;;;12.86;100.00
24788;BME280;12883;52.662;5.196;2022-10-13T02:38:39;101703.66;;;13.01;100.00
24788;BME280;12883;52.662;5.196;2022-10-13T02:41:04;101715.19;;;13.08;100.00
24788;BME280;12883;52.662;5.196;2022-10-13T02:43:29;101704.69;;;13.00;100.00
24788;BME280;12883;52.662;5.196;2022-10-13T02:45:55;101707.38;;;13.06;100.00
24788;BME280;12883;52.662;5.196;2022-10-13T02:48:20;101704.53;;;13.08;100.00
24788;BME280;12883;52.662;5.196;2022-10-13T02:50:45;101695.25;;;13.04;100.00
24788;BME280;12883;52.662;5.196;2022-10-13T02:53:12;101691.81;;;13.10;100.00
24788;BME280;12883;52.662;5.196;2022-10-13T02:55:37;101679.09;;;13.05;100.00
24788;BME280;12883;52.662;5.196;2022-10-13T02:58:02;101679.91;;;13.06;100.00
24788;BME280;12883;52.662;5.196;2022-10-13T03:00:28;101676.25;;;13.07;100.00
24788;BME280;12883;52.662;5.196;2022-10-13T03:02:53;101685.00;;;13.01;100.00
24788;BME280;12883;52.662;5.196;2022-10-13T03:05:19;101674.97;;;13.03;100.00
24788;BME280;12883;52.662;5.196;2022-10-13T03:07:45;101671.72;;;13.07;100.00
24788;BME280;12883;52.662;5.196;2022-10-13T03:10:10;101668.25;;;13.07;100.00
24788;BME280;12883;52.662;5.196;2022-10-13T03:12:35;101661.66;;;13.03;100.00
24788;BME280;12883;52.662;5.196;2022-10-13T03:15:01;101661.03;;;13.01;100.00
24788;BME280;12883;52.662;5.196;2022-10-13T03:17:26;101671.28;;;13.04;100.00
24788;BME280;12883;52.662;5.196;2022-10-13T03:19:52;101653.50;;;13.11;100.00
24788;BME280;12883;52.662;5.196;2022-10-13T03:22:17;101653.31;;;13.12;100.00
24788;BME280;12883;52.662;5.196;2022-10-13T03:24:42;101663.34;;;13.10;100.00
24788;BME280;12883;52.662;5.196;2022-10-13T03:27:08;101646.78;;;13.15;100.00
24788;BME280;12883;52.662;5.196;2022-10-13T03:29:33;101650.06;;;13.17;100.00
24788;BME280;12883;52.662;5.196;2022-10-13T03:31:58;101661.56;;;13.17;100.00
24788;BME280;12883;52.662;5.196;2022-10-13T03:34:24;101668.53;;;13.18;100.00
24788;BME280;12883;52.662;5.196;2022-10-13T03:36:49;101623.72;;;13.01;100.00
24788;BME280;12883;52.662;5.196;2022-10-13T03:39:14;101643.78;;;12.97;100.00
24788;BME280;12883;52.662;5.196;2022-10-13T03:41:40;101663.97;;;13.12;100.00
24788;BME280;12883;52.662;5.196;2022-10-13T03:44:06;101660.72;;;13.17;100.00
24788;BME280;12883;52.662;5.196;2022-10-13T03:46:32;101655.16;;;13.12;100.00
24788;BME280;12883;52.662;5.196;2022-10-13T03:48:57;101583.44;;;12.62;100.00
24788;BME280;12883;52.662;5.196;2022-10-13T03:51:23;101658.22;;;13.09;100.00
24788;BME280;12883;52.662;5.196;2022-10-13T03:53:50;101658.03;;;13.10;100.00
24788;BME280;12883;52.662;5.196;2022-10-13T03:56:22;101657.19;;;13.10;100.00
24788;BME280;12883;52.662;5.196;2022-10-13T03:58:48;101611.56;;;12.71;100.00
24788;BME280;12883;52.662;5.196;2022-10-13T04:01:18;101661.50;;;13.11;100.00
24788;BME280;12883;52.662;5.196;2022-10-13T04:03:43;101662.34;;;13.11;100.00
24788;BME280;12883;52.662;5.196;2022-10-13T04:06:08;101655.97;;;13.12;100.00
24788;BME280;12883;52.662;5.196;2022-10-13T04:08:34;101656.56;;;13.08;100.00
24788;BME280;12883;52.662;5.196;2022-10-13T04:11:00;101652.47;;;13.12;100.00
24788;BME280;12883;52.662;5.196;2022-10-13T04:13:26;101650.06;;;13.17;100.00
24788;BME280;12883;52.662;5.196;2022-10-13T04:15:51;101650.34;;;13.28;100.00
24788;BME280;12883;52.662;5.196;2022-10-13T04:18:17;101650.16;;;13.30;100.00
24788;BME280;12883;52.662;5.196;2022-10-13T04:20:42;101647.31;;;13.38;100.00
24788;BME280;12883;52.662;5.196;2022-10-13T04:23:07;101638.28;;;13.39;100.00
24788;BME280;12883;52.662;5.196;2022-10-13T04:25:35;101632.53;;;13.35;100.00
24788;BME280;12883;52.662;5.196;2022-10-13T04:28:01;101620.75;;;13.23;100.00
24788;BME280;12883;52.662;5.196;2022-10-13T04:30:27;101583.19;;;13.12;100.00
24788;BME280;12883;52.662;5.196;2022-10-13T04:32:52;101627.03;;;13.43;100.00
24788;BME280;12883;52.662;5.196;2022-10-13T04:35:18;101639.56;;;13.43;100.00
24788;BME280;12883;52.662;5.196;2022-10-13T04:37:43;101636.88;;;13.43;100.00
24788;BME280;12883;52.662;5.196;2022-10-13T04:40:08;101625.03;;;13.52;100.00
24788;BME280;12883;52.662;5.196;2022-10-13T04:42:34;101636.66;;;13.44;100.00
24788;BME280;12883;52.662;5.196;2022-10-13T04:44:59;101632.78;;;13.47;100.00
24788;BME280;12883;52.662;5.196;2022-10-13T04:47:24;101639.16;;;13.46;100.00
24788;BME280;12883;52.662;5.196;2022-10-13T04:49:50;101633.44;;;13.49;100.00
24788;BME280;12883;52.662;5.196;2022-10-13T04:52:15;101627.69;;;13.52;100.00
24788;BME280;12883;52.662;5.196;2022-10-13T04:54:41;101633.88;;;13.52;100.00
24788;BME280;12883;52.662;5.196;2022-10-13T04:57:07;101632.44;;;13.56;100.00
24788;BME280;12883;52.662;5.196;2022-10-13T04:59:32;101624.19;;;13.51;100.00
24788;BME280;12883;52.662;5.196;2022-10-13T05:01:57;101611.69;;;13.45;100.00
24788;BME280;12883;52.662;5.196;2022-10-13T05:04:23;101637.53;;;13.51;100.00
24788;BME280;12883;52.662;5.196;2022-10-13T05:06:48;101620.72;;;13.51;100.00
24788;BME280;12883;52.662;5.196;2022-10-13T05:09:14;101610.06;;;13.51;100.00
24788;BME280;12883;52.662;5.196;2022-10-13T05:11:43;101606.78;;;13.49;100.00
24788;BME280;12883;52.662;5.196;2022-10-13T05:14:08;101627.09;;;13.50;100.00
24788;BME280;12883;52.662;5.196;2022-10-13T05:16:34;101613.69;;;13.43;100.00
24788;BME280;12883;52.662;5.196;2022-10-13T05:18:59;101626.22;;;13.43;100.00
24788;BME280;12883;52.662;5.196;2022-10-13T05:21:26;101626.44;;;13.48;100.00
24788;BME280;12883;52.662;5.196;2022-10-13T05:23:53;101626.44;;;13.48;100.00
24788;BME280;12883;52.662;5.196;2022-10-13T05:26:26;101630.97;;;13.47;100.00
24788;BME280;12883;52.662;5.196;2022-10-13T05:28:54;101627.47;;;13.47;100.00
24788;BME280;12883;52.662;5.196;2022-10-13T05:31:22;101621.75;;;13.50;100.00
24788;BME280;12883;52.662;5.196;2022-10-13T05:33:48;101623.63;;;13.56;100.00
24788;BME280;12883;52.662;5.196;2022-10-13T05:36:16;101631.22;;;13.59;100.00
24788;BME280;12883;52.662;5.196;2022-10-13T05:38:42;101621.56;;;13.58;100.00
24788;BME280;12883;52.662;5.196;2022-10-13T05:41:13;101605.31;;;13.46;100.00
24788;BME280;12883;52.662;5.196;2022-10-13T05:43:39;101617.03;;;13.52;100.00
24788;BME280;12883;52.662;5.196;2022-10-13T05:46:05;101604.75;;;13.57;100.00
24788;BME280;12883;52.662;5.196;2022-10-13T05:48:31;101606.19;;;13.60;100.00
24788;BME280;12883;52.662;5.196;2022-10-13T05:50:59;101601.88;;;13.59;100.00
24788;BME280;12883;52.662;5.196;2022-10-13T05:53:27;101601.69;;;13.60;100.00
24788;BME280;12883;52.662;5.196;2022-10-13T05:55:53;101613.38;;;13.59;100.00
24788;BME280;12883;52.662;5.196;2022-10-13T05:58:20;101594.28;;;13.56;100.00
24788;BME280;12883;52.662;5.196;2022-10-13T06:00:46;101585.03;;;13.52;100.00
24788;BME280;12883;52.662;5.196;2022-10-13T06:03:15;101599.44;;;13.64;100.00
24788;BME280;12883;52.662;5.196;2022-10-13T06:05:43;101595.34;;;13.61;100.00
24788;BME280;12883;52.662;5.196;2022-10-13T06:08:12;101590.19;;;13.60;100.00
24788;BME280;12883;52.662;5.196;2022-10-13T06:10:39;101581.31;;;13.46;100.00
24788;BME280;12883;52.662;5.196;2022-10-13T06:13:05;101596.97;;;13.62;100.00
24788;BME280;12883;52.662;5.196;2022-10-13T06:15:30;101590.81;;;13.62;100.00
24788;BME280;12883;52.662;5.196;2022-10-13T06:17:56;101585.09;;;13.65;100.00
24788;BME280;12883;52.662;5.196;2022-10-13T06:20:22;101594.50;;;13.61;100.00
24788;BME280;12883;52.662;5.196;2022-10-13T06:22:47;101591.22;;;13.59;100.00
24788;BME280;12883;52.662;5.196;2022-10-13T06:25:15;101611.75;;;13.65;100.00
24788;BME280;12883;52.662;5.196;2022-10-13T06:27:41;101609.47;;;13.62;100.00
24788;BME280;12883;52.662;5.196;2022-10-13T06:30:07;101604.38;;;13.67;100.00
24788;BME280;12883;52.662;5.196;2022-10-13T06:32:32;101613.44;;;13.72;100.00
24788;BME280;12883;52.662;5.196;2022-10-13T06:34:58;101604.00;;;13.76;100.00
24788;BME280;12883;52.662;5.196;2022-10-13T06:37:23;101606.25;;;13.73;100.00
24788;BME280;12883;52.662;5.196;2022-10-13T06:39:48;101594.53;;;13.74;100.00
24788;BME280;12883;52.662;5.196;2022-10-13T06:42:14;101605.22;;;13.74;100.00
24788;BME280;12883;52.662;5.196;2022-10-13T06:44:39;101600.28;;;13.71;100.00
24788;BME280;12883;52.662;5.196;2022-10-13T06:47:04;101598.44;;;13.71;100.00
24788;BME280;12883;52.662;5.196;2022-10-13T06:49:30;101605.22;;;13.74;100.00
24788;BME280;12883;52.662;5.196;2022-10-13T06:51:56;101606.06;;;13.74;100.00
24788;BME280;12883;52.662;5.196;2022-10-13T06:54:21;101601.75;;;13.80;100.00
24788;BME280;12883;52.662;5.196;2022-10-13T06:56:46;101588.41;;;13.80;100.00
24788;BME280;12883;52.662;5.196;2022-10-13T06:59:12;101589.88;;;13.89;100.00
24788;BME280;12883;52.662;5.196;2022-10-13T07:01:37;101594.78;;;13.85;100.00
24788;BME280;12883;52.662;5.196;2022-10-13T07:04:03;101590.88;;;13.88;100.00
24788;BME280;12883;52.662;5.196;2022-10-13T07:06:28;101596.25;;;13.94;100.00
24788;BME280;12883;52.662;5.196;2022-10-13T07:08:53;101594.81;;;13.92;100.00
24788;BME280;12883;52.662;5.196;2022-10-13T07:11:19;101595.63;;;13.92;100.00
24788;BME280;12883;52.662;5.196;2022-10-13T07:13:44;101594.63;;;13.93;100.00
24788;BME280;12883;52.662;5.196;2022-10-13T07:16:10;101597.28;;;14.00;100.00
24788;BME280;12883;52.662;5.196;2022-10-13T07:18:35;101592.56;;;13.95;100.00
24788;BME280;12883;52.662;5.196;2022-10-13T07:21:01;101585.59;;;13.94;100.00
24788;BME280;12883;52.662;5.196;2022-10-13T07:23:28;101597.72;;;13.97;100.00
24788;BME280;12883;52.662;5.196;2022-10-13T07:25:54;101597.28;;;14.00;100.00
24788;BME280;12883;52.662;5.196;2022-10-13T07:28:22;101601.59;;;14.01;100.00
24788;BME280;12883;52.662;5.196;2022-10-13T07:30:48;101590.94;;;14.01;100.00
24788;BME280;12883;52.662;5.196;2022-10-13T07:33:13;101601.78;;;13.99;100.00
24788;BME280;12883;52.662;5.196;2022-10-13T07:35:39;101575.91;;;13.87;100.00
24788;BME280;12883;52.662;5.196;2022-10-13T07:38:05;101598.13;;;14.07;100.00
24788;BME280;12883;52.662;5.196;2022-10-13T07:40:31;101591.56;;;14.09;100.00
24788;BME280;12883;52.662;5.196;2022-10-13T07:42:56;101597.50;;;14.11;100.00
24788;BME280;12883;52.662;5.196;2022-10-13T07:45:22;101582.75;;;14.15;100.00
24788;BME280;12883;52.662;5.196;2022-10-13T07:47:48;101578.63;;;14.00;100.00
24788;BME280;12883;52.662;5.196;2022-10-13T07:50:13;101586.88;;;14.18;100.00
24788;BME280;12883;52.662;5.196;2022-10-13T07:52:39;101584.66;;;14.21;100.00
24788;BME280;12883;52.662;5.196;2022-10-13T07:55:04;101584.59;;;14.15;100.00
24788;BME280;12883;52.662;5.196;2022-10-13T07:57:30;101581.91;;;14.15;100.00
24788;BME280;12883;52.662;5.196;2022-10-13T07:59:56;101579.91;;;14.30;100.00
24788;BME280;12883;52.662;5.196;2022-10-13T08:02:21;101568.84;;;14.33;100.00
24788;BME280;12883;52.662;5.196;2022-10-13T08:04:46;101570.69;;;14.26;100.00
24788;BME280;12883;52.662;5.196;2022-10-13T08:07:12;101584.84;;;14.33;100.00
24788;BME280;12883;52.662;5.196;2022-10-13T08:09:38;101582.19;;;14.33;100.00
24788;BME280;12883;52.662;5.196;2022-10-13T08:12:03;101586.50;;;14.34;100.00
24788;BME280;12883;52.662;5.196;2022-10-13T08:14:29;101579.09;;;14.36;100.00
24788;BME280;12883;52.662;5.196;2022-10-13T08:16:56;101588.34;;;14.40;100.00
24788;BME280;12883;52.662;5.196;2022-10-13T08:19:22;101596.34;;;14.46;100.00
24788;BME280;12883;52.662;5.196;2022-10-13T08:21:48;101598.00;;;14.47;100.00
24788;BME280;12883;52.662;5.196;2022-10-13T08:24:15;101601.69;;;14.46;100.00
24788;BME280;12883;52.662;5.196;2022-10-13T08:26:42;101594.72;;;14.52;100.00
24788;BME280;12883;52.662;5.196;2022-10-13T08:29:08;101589.38;;;14.52;100.00
24788;BME280;12883;52.662;5.196;2022-10-13T08:31:34;101591.00;;;14.59;100.00
24788;BME280;12883;52.662;5.196;2022-10-13T08:33:59;101587.09;;;14.68;100.00
24788;BME280;12883;52.662;5.196;2022-10-13T08:36:24;101590.00;;;14.67;100.00
24788;BME280;12883;52.662;5.196;2022-10-13T08:38:50;101508.63;;;14.11;100.00
24788;BME280;12883;52.662;5.196;2022-10-13T08:41:38;101591.63;;;14.68;100.00
24788;BME280;12883;52.662;5.196;2022-10-13T08:44:09;101593.28;;;14.62;100.00
24788;BME280;12883;52.662;5.196;2022-10-13T08:46:45;101595.53;;;14.65;100.00
24788;BME280;12883;52.662;5.196;2022-10-13T08:49:14;101594.28;;;14.61;100.00
24788;BME280;12883;52.662;5.196;2022-10-13T08:51:40;101596.38;;;14.66;100.00
24788;BME280;12883;52.662;5.196;2022-10-13T08:54:06;101588.97;;;14.55;100.00
24788;BME280;12883;52.662;5.196;2022-10-13T08:56:33;101605.81;;;14.62;100.00
24788;BME280;12883;52.662;5.196;2022-10-13T08:58:59;101600.91;;;14.59;100.00
24788;BME280;12883;52.662;5.196;2022-10-13T09:01:35;101598.00;;;14.54;100.00
24788;BME280;12883;52.662;5.196;2022-10-13T09:04:14;101594.31;;;14.55;100.00
24788;BME280;12883;52.662;5.196;2022-10-13T09:06:50;101600.06;;;14.52;100.00
24788;BME280;12883;52.662;5.196;2022-10-13T09:09:17;101583.19;;;14.38;100.00
24788;BME280;12883;52.662;5.196;2022-10-13T09:11:45;101598.00;;;14.54;100.00
24788;BME280;12883;52.662;5.196;2022-10-13T09:14:30;101595.13;;;14.62;100.00
24788;BME280;12883;52.662;5.196;2022-10-13T09:17:18;101574.97;;;14.46;100.00
24788;BME280;12883;52.662;5.196;2022-10-13T09:20:41;101595.94;;;14.69;100.00
24788;BME280;12883;52.662;5.196;2022-10-13T09:22:41;101592.66;;;14.60;100.00
24788;BME280;12883;52.662;5.196;2022-10-13T09:25:19;101600.03;;;14.65;100.00
24788;BME280;12883;52.662;5.196;2022-10-13T09:30:40;101592.66;;;14.80;100.00
24788;BME280;12883;52.662;5.196;2022-10-13T09:33:13;101596.94;;;14.87;100.00
24788;BME280;12883;52.662;5.196;2022-10-13T09:35:44;101599.41;;;14.88;100.00
24788;BME280;12883;52.662;5.196;2022-10-13T09:38:12;101592.00;;;14.97;100.00
24788;BME280;12883;52.662;5.196;2022-10-13T09:40:38;101595.25;;;15.05;100.00
24788;BME280;12883;52.662;5.196;2022-10-13T09:43:40;101594.88;;;15.08;100.00
24788;BME280;12883;52.662;5.196;2022-10-13T09:48:48;101587.84;;;15.14;100.00
24788;BME280;12883;52.662;5.196;2022-10-13T09:51:37;101584.56;;;15.12;100.00
24788;BME280;12883;52.662;5.196;2022-10-13T09:54:04;101595.00;;;15.26;100.00
24788;BME280;12883;52.662;5.196;2022-10-13T09:56:45;101585.13;;;15.33;100.00
24788;BME280;12883;52.662;5.196;2022-10-13T10:01:39;101589.25;;;15.42;100.00
24788;BME280;12883;52.662;5.196;2022-10-13T10:04:12;101587.16;;;15.44;100.00
24788;BME280;12883;52.662;5.196;2022-10-13T10:06:39;101589.53;;;15.65;100.00
24788;BME280;12883;52.662;5.196;2022-10-13T10:11:41;101590.94;;;15.74;100.00
24788;BME280;12883;52.662;5.196;2022-10-13T10:14:35;101591.00;;;15.61;100.00
24788;BME280;12883;52.662;5.196;2022-10-13T10:17:27;101580.69;;;15.65;100.00
24788;BME280;12883;52.662;5.196;2022-10-13T10:20:16;101578.91;;;15.52;100.00
24788;BME280;12883;52.662;5.196;2022-10-13T10:25:49;101589.50;;;15.72;100.00
24788;BME280;12883;52.662;5.196;2022-10-13T10:31:45;101582.09;;;15.74;100.00
24788;BME280;12883;52.662;5.196;2022-10-13T10:34:30;101583.94;;;15.73;100.00
24788;BME280;12883;52.662;5.196;2022-10-13T10:39:36;101587.84;;;15.77;100.00
24788;BME280;12883;52.662;5.196;2022-10-13T10:44:30;101587.78;;;15.90;100.00
24788;BME280;12883;52.662;5.196;2022-10-13T10:47:01;101599.97;;;15.80;100.00
24788;BME280;12883;52.662;5.196;2022-10-13T10:49:31;101564.09;;;15.50;100.00
24788;BME280;12883;52.662;5.196;2022-10-13T10:51:58;101623.69;;;15.70;100.00
24788;BME280;12883;52.662;5.196;2022-10-13T10:54:30;101611.31;;;15.75;100.00
24788;BME280;12883;52.662;5.196;2022-10-13T10:57:16;101613.38;;;15.73;100.00
24788;BME280;12883;52.662;5.196;2022-10-13T11:02:40;101595.69;;;15.72;100.00
24788;BME280;12883;52.662;5.196;2022-10-13T11:05:07;101582.38;;;15.59;100.00
24788;BME280;12883;52.662;5.196;2022-10-13T11:12:24;101573.75;;;15.88;100.00
24788;BME280;12883;52.662;5.196;2022-10-13T11:19:46;101565.13;;;15.86;100.00
24788;BME280;12883;52.662;5.196;2022-10-13T11:22:16;101563.44;;;15.92;100.00
24788;BME280;12883;52.662;5.196;2022-10-13T11:24:45;101534.91;;;15.79;100.00
24788;BME280;12883;52.662;5.196;2022-10-13T11:35:11;101560.81;;;16.16;100.00
24788;BME280;12883;52.662;5.196;2022-10-13T11:45:44;101549.97;;;16.05;100.00
24788;BME280;12883;52.662;5.196;2022-10-13T11:56:56;101558.75;;;16.18;100.00
24788;BME280;12883;52.662;5.196;2022-10-13T11:59:26;101552.63;;;16.11;100.00
24788;BME280;12883;52.662;5.196;2022-10-13T12:01:53;101531.97;;;15.87;100.00
24788;BME280;12883;52.662;5.196;2022-10-13T12:04:21;101535.25;;;15.89;100.00
24788;BME280;12883;52.662;5.196;2022-10-13T12:06:53;101529.31;;;15.87;100.00
24788;BME280;12883;52.662;5.196;2022-10-13T12:09:20;101502.34;;;15.82;100.00
24788;BME280;12883;52.662;5.196;2022-10-13T12:11:55;101549.31;;;16.09;100.00
24788;BME280;12883;52.662;5.196;2022-10-13T12:14:28;101535.00;;;15.97;100.00
24788;BME280;12883;52.662;5.196;2022-10-13T12:16:57;101544.03;;;16.03;100.00
24788;BME280;12883;52.662;5.196;2022-10-13T12:19:26;101546.50;;;16.04;100.00
24788;BME280;12883;52.662;5.196;2022-10-13T12:21:54;101537.44;;;15.99;100.00
24788;BME280;12883;52.662;5.196;2022-10-13T12:24:22;101524.94;;;15.93;100.00
24788;BME280;12883;52.662;5.196;2022-10-13T12:26:48;101525.00;;;16.11;100.00
24788;BME280;12883;52.662;5.196;2022-10-13T12:29:14;101515.13;;;16.11;100.00
24788;BME280;12883;52.662;5.196;2022-10-13T12:31:41;101521.66;;;16.22;100.00
24788;BME280;12883;52.662;5.196;2022-10-13T12:34:27;101528.44;;;16.24;100.00
24788;BME280;12883;52.662;5.196;2022-10-13T12:37:05;101509.44;;;16.01;100.00
24788;BME280;12883;52.662;5.196;2022-10-13T12:39:37;101531.59;;;16.15;100.00
24788;BME280;12883;52.662;5.196;2022-10-13T12:42:06;101526.47;;;16.07;100.00
24788;BME280;12883;52.662;5.196;2022-10-13T12:44:32;101534.13;;;16.03;100.00
24788;BME280;12883;52.662;5.196;2022-10-13T12:47:00;101527.31;;;16.07;100.00
24788;BME280;12883;52.662;5.196;2022-10-13T12:49:32;101521.78;;;16.02;100.00
24788;BME280;12883;52.662;5.196;2022-10-13T12:52:17;101517.47;;;16.01;100.00
24788;BME280;12883;52.662;5.196;2022-10-13T12:54:53;101518.44;;;16.07;100.00
24788;BME280;12883;52.662;5.196;2022-10-13T12:57:30;101530.25;;;15.99;100.00
24788;BME280;12883;52.662;5.196;2022-10-13T13:00:24;101520.09;;;16.08;100.00
24788;BME280;12883;52.662;5.196;2022-10-13T13:03:00;101515.34;;;16.10;100.00
24788;BME280;12883;52.662;5.196;2022-10-13T13:07:57;101525.50;;;16.01;100.00
24788;BME280;12883;52.662;5.196;2022-10-13T13:10:23;101528.38;;;16.00;100.00
24788;BME280;12883;52.662;5.196;2022-10-13T13:12:50;101523.41;;;16.03;100.00
24788;BME280;12883;52.662;5.196;2022-10-13T13:15:36;101523.53;;;15.90;100.00
24788;BME280;12883;52.662;5.196;2022-10-13T13:18:36;101530.94;;;15.88;100.00
24788;BME280;12883;52.662;5.196;2022-10-13T13:21:05;101537.97;;;15.83;100.00
24788;BME280;12883;52.662;5.196;2022-10-13T13:23:31;101540.91;;;15.75;100.00
24788;BME280;12883;52.662;5.196;2022-10-13T13:26:09;101467.94;;;15.17;100.00
24788;BME280;12883;52.662;5.196;2022-10-13T13:28:35;101542.22;;;15.59;100.00
24788;BME280;12883;52.662;5.196;2022-10-13T13:31:00;101535.88;;;15.54;100.00
24788;BME280;12883;52.662;5.196;2022-10-13T13:33:26;101533.34;;;15.65;100.00
24788;BME280;12883;52.662;5.196;2022-10-13T13:35:52;101535.25;;;15.58;100.00
24788;BME280;12883;52.662;5.196;2022-10-13T13:38:17;101533.41;;;15.52;100.00
24788;BME280;12883;52.662;5.196;2022-10-13T13:40:43;101527.41;;;15.63;100.00
24788;BME280;12883;52.662;5.196;2022-10-13T13:43:08;101533.59;;;15.57;100.00
24788;BME280;12883;52.662;5.196;2022-10-13T13:45:34;101531.53;;;15.59;100.00
24788;BME280;12883;52.662;5.196;2022-10-13T13:48:00;101521.00;;;15.64;100.00
24788;BME280;12883;52.662;5.196;2022-10-13T13:50:29;101523.69;;;15.64;100.00
24788;BME280;12883;52.662;5.196;2022-10-13T13:52:56;101506.53;;;15.41;100.00
24788;BME280;12883;52.662;5.196;2022-10-13T13:55:22;101516.47;;;15.65;100.00
24788;BME280;12883;52.662;5.196;2022-10-13T13:57:47;101519.41;;;15.57;100.00
24788;BME280;12883;52.662;5.196;2022-10-13T14:00:14;101521.66;;;15.60;100.00
24788;BME280;12883;52.662;5.196;2022-10-13T14:02:41;101521.69;;;15.53;100.00
24788;BME280;12883;52.662;5.196;2022-10-13T14:05:08;101515.72;;;15.51;100.00
24788;BME280;12883;52.662;5.196;2022-10-13T14:07:33;101519.50;;;15.37;100.00